• Join FlightAware (Why Join?)
  • Login
  • US Flag 
12:25AM EST


 

Airport Tracker/Info


-or-


 

Live Flight TrackerFlight Track Log ✈ SWA868 ✈ 23.04.2013 ✈ KBNA - KTPA

Flight Track Log - Related Links

Times and Time Zones

All times are in EDT time to prevent confusion due to time zone crossing. See the SWA868 flight status page for this flight to view local times or setup timezone preferences in your user account.

Time Position Orientation Groundspeed Altitude Reporting Facility
EDT Latitude Longitude Course Direction KTS MPH feet Rate Location/Type
06:53PM 36.1000 -86.6833 180° South 130 150 1,500  Level Nashville TRACON
06:54PM 36.0667 -86.6833 180° South 181 208 3,500 2,760 Climbing Nashville TRACON
06:55PM 36.0000 -86.6500 158° South 257 296 6,800 3,000 Climbing Nashville TRACON
06:56PM 35.9756 -86.6378 158° South 263 303 7,900 3,600 Climbing Memphis Center
06:57PM 35.9075 -86.5922 152° Southeast 327 376 11,800 3,900 Climbing Memphis Center
06:58PM 35.8222 -86.5347 151° Southeast 332 382 15,800 3,780 Climbing Memphis Center
06:59PM 35.7308 -86.4725 151° Southeast 360 414 19,400 3,540 Climbing Memphis Center
07:00PM 35.6275 -86.4417 166° South 370 426 22,900 3,000 Climbing Memphis Center
07:02PM 35.4264 -86.4039 171° South 405 466 28,200 2,580 Climbing Atlanta Center
07:03PM 35.3042 -86.3547 162° South 420 483 30,500 2,100 Climbing Atlanta Center
07:04PM 35.1867 -86.2878 155° Southeast 444 511 32,500 1,740 Climbing Atlanta Center
07:05PM 35.0875 -86.2267 153° Southeast 449 517 34,000 1,200 Climbing Atlanta Center
07:06PM 34.9675 -86.1678 158° South 461 531 35,000 1,560 Climbing Atlanta Center
07:07PM 34.8475 -86.1167 161° South 461 531 37,200 1,860 Climbing Atlanta Center
07:08PM 34.7272 -86.0656 161° South 461 531 38,800 1,860 Climbing Atlanta Center
07:09PM 34.6050 -86.0122 160° South 461 531 41,000 1,020 Climbing Atlanta Center
07:10PM 34.4847 -85.9642 162° South 461 531 40,900  Descending Atlanta Center
07:11PM 34.3603 -85.9108 161° South 461 531 41,000  Climbing Atlanta Center
07:12PM 34.2358 -85.8581 161° South 461 531 41,000  Level Atlanta Center
07:13PM 34.0989 -85.8025 161° South 466 536 41,000  Level Atlanta Center
07:14PM 33.9908 -85.7600 162° South 461 531 41,000  Level Atlanta Center
07:15PM 33.8686 -85.7100 161° South 461 531 41,000  Level Atlanta Center
07:16PM 33.7439 -85.6575 161° South 461 531 41,000  Level Atlanta Center
07:17PM 33.6194 -85.6056 161° South 466 536 41,000  Level Atlanta Center
07:18PM 33.4928 -85.5533 161° South 472 543 41,000  Level Atlanta Center
07:19PM 33.3578 -85.4961 161° South 472 543 41,000  Level Atlanta Center
07:20PM 33.2311 -85.4444 161° South 477 549 41,000  Level Atlanta Center
07:21PM 33.1064 -85.3953 162° South 482 555 41,000  Level Atlanta Center
07:22PM 32.9964 -85.3442 159° South 477 549 41,000  Level Atlanta Center
07:23PM 32.8694 -85.2903 160° South 477 549 41,000  Level Atlanta Center
07:24PM 32.7511 -85.2417 161° South 477 549 41,000  Level Atlanta Center
07:25PM 32.6200 -85.1881 161° South 482 555 41,000  Level Atlanta Center
07:26PM 32.4911 -85.1372 162° South 482 555 41,000  Level Atlanta Center
07:27PM 32.3642 -85.0864 161° South 482 555 41,000  Level Atlanta Center
07:28PM 32.2247 -85.0333 162° South 482 555 41,000  Level Atlanta Center
07:29PM 32.0936 -84.9828 162° South 477 549 41,000  Level Atlanta Center
07:29PM 32.0100 -84.9458 159° South 479 551 41,000  Level Jacksonville Center
07:30PM 31.8814 -84.8964 162° South 497 572 41,000  Level Jacksonville Center
07:31PM 31.7694 -84.8525 162° South 486 559 41,000  Level Jacksonville Center
07:32PM 31.6428 -84.8033 162° South 486 559 41,000  Level Jacksonville Center
07:33PM 31.5142 -84.7494 160° South 481 554 41,000  Level Jacksonville Center
07:34PM 31.3875 -84.7008 162° South 481 554 41,000  Level Jacksonville Center
07:35PM 31.2586 -84.6497 161° South 481 554 41,000  Level Jacksonville Center
07:36PM 31.1319 -84.5989 161° South 481 554 41,000  Level Jacksonville Center
07:37PM 31.0033 -84.5506 162° South 481 554 41,000  Level Jacksonville Center
07:38PM 30.8744 -84.4997 161° South 481 554 41,000  Level Jacksonville Center
07:39PM 30.7500 -84.4300 154° Southeast 486 559 41,000  Level Jacksonville Center
07:40PM 30.6256 -84.3556 153° Southeast 492 566 41,000  Level Jacksonville Center
07:41PM 30.4931 -84.2692 151° Southeast 497 572 41,000  Level Jacksonville Center
07:42PM 30.3683 -84.1975 154° Southeast 497 572 41,000  Level Jacksonville Center
07:43PM 30.2481 -84.1236 152° Southeast 492 566 41,000  Level Jacksonville Center
07:44PM 30.1256 -84.0525 153° Southeast 492 566 41,000  Level Jacksonville Center
07:45PM 30.0031 -83.9767 152° Southeast 492 566 41,000 -60 Level Jacksonville Center
07:46PM 29.8825 -83.9058 153° Southeast 492 566 40,900 -1,260 Descending Jacksonville Center
07:47PM 29.7578 -83.8303 152° Southeast 492 566 38,500 -2,640 Descending Jacksonville Center
07:48PM 29.6353 -83.7575 153° Southeast 492 566 35,700 -2,880 Descending Jacksonville Center
07:49PM 29.5125 -83.6825 152° Southeast 492 566 32,800 -2,700 Descending Jacksonville Center
07:50PM 29.3919 -83.6100 152° Southeast 487 560 30,300 -2,400 Descending Jacksonville Center
07:51PM 29.2775 -83.5450 154° Southeast 480 552 28,000 -1,740 Descending Jacksonville Center
07:52PM 29.1711 -83.4800 152° Southeast 456 525 26,900 -1,140 Descending Jacksonville Center
07:53PM 29.0733 -83.4178 151° Southeast 424 488 25,800 -1,080 Descending Jacksonville Center
07:54PM 28.9733 -83.3531 150° Southeast 412 474 24,800 -1,380 Descending Jacksonville Center
07:55PM 28.8797 -83.2956 152° Southeast 402 463 23,100 -1,800 Descending Jacksonville Center
07:56PM 28.7881 -83.2361 150° Southeast 390 449 21,200 -1,920 Descending Jacksonville Center
07:58PM 28.6167 -83.1333 152° Southeast 360 414 17,400 -1,980 Descending Tampa TRACON
07:59PM 28.5167 -83.0667 150° Southeast 354 407 15,200 -2,040 Descending Tampa TRACON
08:00PM 28.4333 -83.0167 152° Southeast 347 399 13,200 -1,740 Descending Tampa TRACON
08:01PM 28.3667 -82.9667 147° Southeast 331 381 12,000 -1,200 Descending Tampa TRACON
08:02PM 28.2833 -82.9167 152° Southeast 315 362 11,000 -480 Descending Tampa TRACON
08:03PM 28.2000 -82.8667 152° Southeast 316 364 11,000 -540 Level Tampa TRACON
08:04PM 28.1500 -82.7833 124° Southeast 315 362 9,900 -1,320 Descending Tampa TRACON
08:05PM 28.1000 -82.7333 139° Southeast 301 346 8,700 -1,620 Descending Tampa TRACON
08:06PM 28.0500 -82.6667 130° Southeast 292 336 7,200 -1,500 Descending Tampa TRACON
08:07PM 27.9833 -82.6167 146° Southeast 274 315 5,700 -1,500 Descending Tampa TRACON
08:08PM 27.9167 -82.6167 180° South 268 308 4,200 -1,380 Descending Tampa TRACON
08:09PM 27.8500 -82.6000 168° South 220 253 3,000 -1,140 Descending Tampa TRACON
08:10PM 27.8667 -82.5500 69° East 166 191 1,900 -960 Descending Tampa TRACON
08:11PM 27.9167 -82.5500 360° North 140 161 1,100 -780 Descending Tampa TRACON
08:12PM 27.9500 -82.5500 360° North 125 144 400 -720 Descending Tampa TRACON
08:14PM 27.9755 -82.5332 352° North  Level Estimated
08:21PM 27.9755 -82.5332 161° South  Level Estimated
08:22PM 27.9755 -82.5332 161° South  Level Estimated